Auriga Leader — 9VHF4 — position and weather

sailwx.info

Track history (hours):
 
Tides and Currents Weather Stations Pressure Air Temp Water Temp Dewpoint Dewpoint Depression Visibility Wind Speed Wind Dir Waves Ship Positions

Auriga Leader

Last reported at 2017-Oct-11 20:00 UTC. Time now 2017-Oct-17 22:30 UTC.
Position N 17°33' W 060°48'.

Date/timePositionNaut miles runAvg speedWind from/ knotsBaromVisibWave heightAir tempDewpointWater temp
2017-Oct-11 20:00N 17°33' W 060°48'1116.4
2017-Oct-11 19:20N 17°40' W 060°57'516.3
2017-Oct-11 19:00N 17°44' W 061°01'  
2017-Oct-07 08:55N 26°13' W 079°12'614.0
2017-Oct-07 08:30N 26°13' W 079°18'714.3
2017-Oct-07 08:00N 26°12' W 079°26'714.2
2017-Oct-07 07:30N 26°11' W 079°34'713.6
2017-Oct-07 07:00N 26°09' W 079°41'713.2
2017-Oct-07 06:30N 26°08' W 079°49'713.5
2017-Oct-07 06:00N 26°07' W 079°56'612.7
2017-Oct-07 05:30N 26°06' W 080°03'4 7.1
2017-Oct-07 05:00N 26°05' W 080°07'1 1.4
2017-Oct-07 04:30N 26°05' W 080°07'0 0.0
2017-Oct-07 03:55N 26°05' W 080°07'0 0.0
2017-Oct-07 03:28N 26°05' W 080°07'0 0.0
2017-Oct-07 02:58N 26°05' W 080°07'0 0.0
2017-Oct-07 02:22N 26°05' W 080°07'0 0.0
2017-Oct-07 01:58N 26°05' W 080°07'0 0.0
2017-Oct-07 01:22N 26°05' W 080°07'0 0.0
2017-Oct-07 00:52N 26°05' W 080°07'0 0.0
2017-Oct-07 00:28N 26°05' W 080°07'0 0.0
2017-Oct-06 23:52N 26°05' W 080°07'0 0.0
2017-Oct-06 22:58N 26°05' W 080°07'0 0.0
2017-Oct-06 22:28N 26°05' W 080°07'0 0.0
2017-Oct-06 21:55N 26°05' W 080°07'0 0.0
2017-Oct-06 21:28N 26°05' W 080°07'0 0.0
2017-Oct-06 20:58N 26°05' W 080°07'0 0.0
2017-Oct-06 20:28N 26°05' W 080°07'0 0.0
2017-Oct-06 19:58N 26°05' W 080°07'0 0.0
2017-Oct-06 19:28N 26°05' W 080°07'0 0.0
2017-Oct-06 18:58N 26°05' W 080°07'0 0.0
2017-Oct-06 18:28N 26°05' W 080°07'0 0.1
2017-Oct-06 18:00N 26°05' W 080°07'1 2.0
2017-Oct-06 17:30N 26°06' W 080°06'4 8.7
2017-Oct-06 17:00N 26°06' W 080°02'3 6.7
2017-Oct-06 16:30N 26°08' W 079°59'2 3.8
2017-Oct-06 16:00N 26°10' W 079°58'1 1.7
2017-Oct-06 15:30N 26°10' W 079°57'2 4.2
2017-Oct-06 15:00N 26°12' W 079°56'4 8.7
2017-Oct-06 14:30N 26°16' W 079°54'4 8.8
2017-Oct-06 14:00N 26°20' W 079°52'5 9.7
2017-Oct-06 13:30N 26°25' W 079°50'3 5.6
2017-Oct-06 13:00N 26°27' W 079°49'611.5
2017-Oct-06 12:30N 26°33' W 079°47'  
2017-Oct-03 23:07N 41°08' W 069°15'217.2
2017-Oct-03 23:00N 41°10' W 069°16'917.7
2017-Oct-03 22:29N 41°18' W 069°22'917.9
2017-Oct-03 21:59N 41°26' W 069°27'2018.4
2017-Oct-03 20:53N 41°44' W 069°40'2218.9
2017-Oct-03 19:42N 42°04' W 069°53'518.7
2017-Oct-03 19:27N 42°08' W 069°56'919.1
2017-Oct-03 19:00N 42°16' W 070°01'919.0
2017-Oct-03 18:30N 42°18' W 070°14'1019.6
2017-Oct-03 18:00N 42°19' W 070°27'918.5
2017-Oct-03 17:30N 42°20' W 070°39'816.0
2017-Oct-03 17:00N 42°23' W 070°49'510.2
2017-Oct-03 16:30N 42°21' W 070°56'5 9.5
2017-Oct-03 16:00N 42°21' W 071°02'2 3.5
2017-Oct-03 15:30N 42°23' W 071°03'0 0.0
2017-Oct-03 14:58N 42°23' W 071°03'0 0.0
2017-Oct-03 13:58N 42°23' W 071°03'0 0.0
2017-Oct-03 13:28N 42°23' W 071°03'0 0.0
2017-Oct-03 12:58N 42°23' W 071°03'0 0.0
2017-Oct-03 12:28N 42°23' W 071°03'0 0.0
2017-Oct-03 11:58N 42°23' W 071°03'0 0.0
2017-Oct-03 11:28N 42°23' W 071°03'0 0.0
2017-Oct-03 10:58N 42°23' W 071°03'0 0.0
2017-Oct-03 10:28N 42°23' W 071°03'0 0.0
2017-Oct-03 09:58N 42°23' W 071°03'0 0.7
2017-Oct-03 09:30N 42°23' W 071°03'2 3.1
2017-Oct-03 09:00N 42°21' W 071°02'5 9.2
2017-Oct-03 08:30N 42°21' W 070°56'510.9
2017-Oct-03 08:00N 42°24' W 070°50'4 8.8
2017-Oct-03 07:30N 42°25' W 070°44'2 4.2
2017-Oct-03 07:00N 42°27' W 070°43'0 0.4
2017-Oct-03 06:30N 42°27' W 070°43'0 0.4
2017-Oct-03 06:00N 42°27' W 070°42'0 0.3
2017-Oct-03 05:30N 42°27' W 070°42'0 0.4
2017-Oct-03 05:00N 42°27' W 070°42'0 0.3
2017-Oct-03 04:30N 42°26' W 070°42'0 0.6
2017-Oct-03 04:00N 42°26' W 070°42'0 1.0
2017-Oct-03 03:30N 42°26' W 070°43'1 2.8
2017-Oct-03 03:00N 42°27' W 070°44'0 0.4
2017-Oct-03 02:30N 42°27' W 070°44'0 0.4
2017-Oct-03 02:00N 42°27' W 070°43'0 0.5
2017-Oct-03 01:30N 42°27' W 070°43'0 0.5
2017-Oct-03 01:00N 42°27' W 070°43'0 0.4
2017-Oct-03 00:30N 42°26' W 070°43'0 0.4
2017-Oct-03 00:00N 42°26' W 070°43'1 2.2
2017-Oct-02 23:30N 42°26' W 070°44'4 8.9
2017-Oct-02 23:00N 42°21' W 070°42'510.7
2017-Oct-02 22:30N 42°17' W 070°39'510.6
2017-Oct-02 22:00N 42°13' W 070°34'510.3
2017-Oct-02 21:30N 42°08' W 070°31'510.3
2017-Oct-02 21:00N 42°03' W 070°29'510.0
2017-Oct-02 20:30N 41°58' W 070°28'5 9.9
2017-Oct-02 20:00N 41°54' W 070°27'5 9.8
2017-Oct-02 19:30N 41°49' W 070°27'4411.7
2017-Oct-02 15:44N 41°30' W 071°21'415.7
2017-Oct-02 15:29N 41°34' W 071°21'4 0.6
2017-Oct-02 09:52N 41°37' W 071°24'1 1.8
2017-Oct-02 09:30N 41°36' W 071°24'3 5.4
2017-Oct-02 09:00N 41°34' W 071°21'711.1
2017-Oct-02 08:24N 41°28' W 071°22'  
Track history (hours):
 
Tides and Currents Weather Stations Pressure Air Temp Water Temp Dewpoint Dewpoint Depression Visibility Wind Speed Wind Dir Waves Ship Positions

Auriga Leader

Last reported at 2017-Oct-11 20:00 UTC. Time now 2017-Oct-17 22:30 UTC.
Position N 17°33' W 060°48'.

Date/timePositionNaut miles runAvg speedWind from/ knotsBaromVisibWave heightAir tempDewpointWater temp
2017-Oct-11 20:00N 17°33' W 060°48'1116.4
2017-Oct-11 19:20N 17°40' W 060°57'516.3
2017-Oct-11 19:00N 17°44' W 061°01'  
2017-Oct-07 08:55N 26°13' W 079°12'614.0
2017-Oct-07 08:30N 26°13' W 079°18'714.3
2017-Oct-07 08:00N 26°12' W 079°26'714.2
2017-Oct-07 07:30N 26°11' W 079°34'713.6
2017-Oct-07 07:00N 26°09' W 079°41'713.2
2017-Oct-07 06:30N 26°08' W 079°49'713.5
2017-Oct-07 06:00N 26°07' W 079°56'612.7
2017-Oct-07 05:30N 26°06' W 080°03'4 7.1
2017-Oct-07 05:00N 26°05' W 080°07'1 1.4
2017-Oct-07 04:30N 26°05' W 080°07'0 0.0
2017-Oct-07 03:55N 26°05' W 080°07'0 0.0
2017-Oct-07 03:28N 26°05' W 080°07'0 0.0
2017-Oct-07 02:58N 26°05' W 080°07'0 0.0
2017-Oct-07 02:22N 26°05' W 080°07'0 0.0
2017-Oct-07 01:58N 26°05' W 080°07'0 0.0
2017-Oct-07 01:22N 26°05' W 080°07'0 0.0
2017-Oct-07 00:52N 26°05' W 080°07'0 0.0
2017-Oct-07 00:28N 26°05' W 080°07'0 0.0
2017-Oct-06 23:52N 26°05' W 080°07'0 0.0
2017-Oct-06 22:58N 26°05' W 080°07'0 0.0
2017-Oct-06 22:28N 26°05' W 080°07'0 0.0
2017-Oct-06 21:55N 26°05' W 080°07'0 0.0
2017-Oct-06 21:28N 26°05' W 080°07'0 0.0
2017-Oct-06 20:58N 26°05' W 080°07'0 0.0
2017-Oct-06 20:28N 26°05' W 080°07'0 0.0
2017-Oct-06 19:58N 26°05' W 080°07'0 0.0
2017-Oct-06 19:28N 26°05' W 080°07'0 0.0
2017-Oct-06 18:58N 26°05' W 080°07'0 0.0
2017-Oct-06 18:28N 26°05' W 080°07'0 0.1
2017-Oct-06 18:00N 26°05' W 080°07'1 2.0
2017-Oct-06 17:30N 26°06' W 080°06'4 8.7
2017-Oct-06 17:00N 26°06' W 080°02'3 6.7
2017-Oct-06 16:30N 26°08' W 079°59'2 3.8
2017-Oct-06 16:00N 26°10' W 079°58'1 1.7
2017-Oct-06 15:30N 26°10' W 079°57'2 4.2
2017-Oct-06 15:00N 26°12' W 079°56'4 8.7
2017-Oct-06 14:30N 26°16' W 079°54'4 8.8
2017-Oct-06 14:00N 26°20' W 079°52'5 9.7
2017-Oct-06 13:30N 26°25' W 079°50'3 5.6
2017-Oct-06 13:00N 26°27' W 079°49'611.5
2017-Oct-06 12:30N 26°33' W 079°47'  
2017-Oct-03 23:07N 41°08' W 069°15'217.2
2017-Oct-03 23:00N 41°10' W 069°16'917.7
2017-Oct-03 22:29N 41°18' W 069°22'917.9
2017-Oct-03 21:59N 41°26' W 069°27'2018.4
2017-Oct-03 20:53N 41°44' W 069°40'2218.9
2017-Oct-03 19:42N 42°04' W 069°53'518.7
2017-Oct-03 19:27N 42°08' W 069°56'919.1
2017-Oct-03 19:00N 42°16' W 070°01'919.0
2017-Oct-03 18:30N 42°18' W 070°14'1019.6
2017-Oct-03 18:00N 42°19' W 070°27'918.5
2017-Oct-03 17:30N 42°20' W 070°39'816.0
2017-Oct-03 17:00N 42°23' W 070°49'510.2
2017-Oct-03 16:30N 42°21' W 070°56'5 9.5
2017-Oct-03 16:00N 42°21' W 071°02'2 3.5
2017-Oct-03 15:30N 42°23' W 071°03'0 0.0
2017-Oct-03 14:58N 42°23' W 071°03'0 0.0
2017-Oct-03 13:58N 42°23' W 071°03'0 0.0
2017-Oct-03 13:28N 42°23' W 071°03'0 0.0
2017-Oct-03 12:58N 42°23' W 071°03'0 0.0
2017-Oct-03 12:28N 42°23' W 071°03'0 0.0
2017-Oct-03 11:58N 42°23' W 071°03'0 0.0
2017-Oct-03 11:28N 42°23' W 071°03'0 0.0
2017-Oct-03 10:58N 42°23' W 071°03'0 0.0
2017-Oct-03 10:28N 42°23' W 071°03'0 0.0
2017-Oct-03 09:58N 42°23' W 071°03'0 0.7
2017-Oct-03 09:30N 42°23' W 071°03'2 3.1
2017-Oct-03 09:00N 42°21' W 071°02'5 9.2
2017-Oct-03 08:30N 42°21' W 070°56'510.9
2017-Oct-03 08:00N 42°24' W 070°50'4 8.8
2017-Oct-03 07:30N 42°25' W 070°44'2 4.2
2017-Oct-03 07:00N 42°27' W 070°43'0 0.4
2017-Oct-03 06:30N 42°27' W 070°43'0 0.4
2017-Oct-03 06:00N 42°27' W 070°42'0 0.3
2017-Oct-03 05:30N 42°27' W 070°42'0 0.4
2017-Oct-03 05:00N 42°27' W 070°42'0 0.3
2017-Oct-03 04:30N 42°26' W 070°42'0 0.6
2017-Oct-03 04:00N 42°26' W 070°42'0 1.0
2017-Oct-03 03:30N 42°26' W 070°43'1 2.8
2017-Oct-03 03:00N 42°27' W 070°44'0 0.4
2017-Oct-03 02:30N 42°27' W 070°44'0 0.4
2017-Oct-03 02:00N 42°27' W 070°43'0 0.5
2017-Oct-03 01:30N 42°27' W 070°43'0 0.5
2017-Oct-03 01:00N 42°27' W 070°43'0 0.4
2017-Oct-03 00:30N 42°26' W 070°43'0 0.4
2017-Oct-03 00:00N 42°26' W 070°43'1 2.2
2017-Oct-02 23:30N 42°26' W 070°44'4 8.9
2017-Oct-02 23:00N 42°21' W 070°42'510.7
2017-Oct-02 22:30N 42°17' W 070°39'510.6
2017-Oct-02 22:00N 42°13' W 070°34'510.3
2017-Oct-02 21:30N 42°08' W 070°31'510.3
2017-Oct-02 21:00N 42°03' W 070°29'510.0
2017-Oct-02 20:30N 41°58' W 070°28'5 9.9
2017-Oct-02 20:00N 41°54' W 070°27'5 9.8
2017-Oct-02 19:30N 41°49' W 070°27'4411.7
2017-Oct-02 15:44N 41°30' W 071°21'415.7
2017-Oct-02 15:29N 41°34' W 071°21'4 0.6
2017-Oct-02 09:52N 41°37' W 071°24'1 1.8
2017-Oct-02 09:30N 41°36' W 071°24'3 5.4
2017-Oct-02 09:00N 41°34' W 071°21'711.1
2017-Oct-02 08:24N 41°28' W 071°22'  

Dump ship's entire track history